createdAt,value
2022-10-05T00:08:36.484Z,4.57
2022-10-05T00:18:59.523Z,4.35
2022-10-05T00:29:22.953Z,4.63
2022-10-05T00:39:45.062Z,4.22
2022-10-05T00:50:25.404Z,4.30
2022-10-05T01:01:05.126Z,4.77
2022-10-05T01:12:05.790Z,4.70
2022-10-05T01:22:48.575Z,5.17
2022-10-05T01:33:09.970Z,5.18
2022-10-05T01:43:44.694Z,4.97
2022-10-05T01:54:40.419Z,5.85
2022-10-05T02:05:11.139Z,5.30
2022-10-05T02:15:42.942Z,5.50
2022-10-05T02:26:05.854Z,5.60
2022-10-05T02:36:35.449Z,5.13
2022-10-05T02:47:10.548Z,5.60
2022-10-05T02:57:38.974Z,5.97
2022-10-05T03:08:28.879Z,6.10
2022-10-05T03:19:10.285Z,5.57
2022-10-05T03:29:40.267Z,5.78
2022-10-05T03:40:06.758Z,5.95
2022-10-05T03:50:46.866Z,6.45
2022-10-05T04:01:18.555Z,6.25
2022-10-05T04:11:46.236Z,6.63
2022-10-05T04:22:25.400Z,6.50
2022-10-05T04:32:55.725Z,6.90
2022-10-05T04:43:55.551Z,6.60
2022-10-05T04:54:27.820Z,6.95
2022-10-05T05:05:08.610Z,7.10
2022-10-05T05:15:46.572Z,7.10
2022-10-05T05:26:20.128Z,7.47
2022-10-05T05:37:25.227Z,8.18
2022-10-05T05:47:53.918Z,8.13
2022-10-05T05:58:25.203Z,8.73
2022-10-05T06:08:51.034Z,9.25
2022-10-05T06:19:16.578Z,8.88
2022-10-05T06:30:16.955Z,8.88
2022-10-05T06:41:02.528Z,8.87
2022-10-05T06:51:50.358Z,9.48
2022-10-05T07:02:23.924Z,8.88
2022-10-05T07:12:54.454Z,9.65
2022-10-05T07:23:52.843Z,9.05
2022-10-05T07:34:41.282Z,9.68
2022-10-05T07:45:25.965Z,9.18
2022-10-05T07:55:52.417Z,8.35
2022-10-05T08:06:30.405Z,8.57
2022-10-05T08:16:57.691Z,7.75
2022-10-05T08:27:28.119Z,6.63
2022-10-05T08:37:51.111Z,5.97
2022-10-05T08:48:42.297Z,6.10
2022-10-05T08:59:22.055Z,5.90
2022-10-05T09:10:21.430Z,6.30
2022-10-05T09:20:53.588Z,6.40
2022-10-05T09:31:44.896Z,6.32
2022-10-05T09:42:17.877Z,5.63
2022-10-05T09:52:39.341Z,4.85
2022-10-05T10:14:18.320Z,3.60
2022-10-05T10:25:04.546Z,3.00
2022-10-05T10:35:37.841Z,3.05
2022-10-05T10:45:59.300Z,3.05
2022-10-05T10:56:26.989Z,2.97
2022-10-05T11:07:09.830Z,3.05
2022-10-05T11:17:40.262Z,2.78
2022-10-05T11:28:35.761Z,2.73
2022-10-05T11:39:18.975Z,2.50
2022-10-05T11:49:47.485Z,2.50
2022-10-05T12:00:23.710Z,2.40
2022-10-05T12:11:25.643Z,2.20
2022-10-05T12:21:53.792Z,2.20
2022-10-05T12:32:33.638Z,2.53
2022-10-05T12:43:15.939Z,2.55
2022-10-05T12:53:40.401Z,2.85
2022-10-05T13:04:10.190Z,2.47
2022-10-05T13:14:40.800Z,2.20
2022-10-05T13:25:29.573Z,2.10
2022-10-05T13:36:18.687Z,2.30
2022-10-05T13:47:03.865Z,2.20
2022-10-05T13:57:46.719Z,2.47
2022-10-05T14:08:08.543Z,2.20
2022-10-05T14:18:32.844Z,2.08
2022-10-05T14:29:17.081Z,1.98
2022-10-05T14:39:42.453Z,1.90
2022-10-05T14:50:17.766Z,1.80
2022-10-05T15:01:17.709Z,2.13
2022-10-05T15:11:49.295Z,1.60
2022-10-05T15:22:14.136Z,2.00
2022-10-05T15:33:04.341Z,2.10
2022-10-05T15:43:35.142Z,1.43
2022-10-05T16:05:20.041Z,1.77
2022-10-05T16:15:50.559Z,1.63
2022-10-05T16:26:18.487Z,1.87
2022-10-05T16:36:53.375Z,1.90
2022-10-05T16:47:39.735Z,1.90
2022-10-05T16:58:11.586Z,1.73
2022-10-05T17:09:10.359Z,1.55
2022-10-05T17:19:47.742Z,1.50
2022-10-05T17:30:28.418Z,1.60
2022-10-05T17:51:48.863Z,1.67
2022-10-05T18:02:19.511Z,1.47
2022-10-05T18:12:59.454Z,1.70
2022-10-05T18:23:23.799Z,1.57
2022-10-05T18:33:53.415Z,1.73
2022-10-05T18:44:26.315Z,1.38
2022-10-05T18:55:13.340Z,1.40
2022-10-05T19:05:50.056Z,1.30
2022-10-05T19:16:20.228Z,1.50
2022-10-05T19:27:06.743Z,1.13
2022-10-05T19:37:46.241Z,1.20
2022-10-05T19:48:28.666Z,1.08
2022-10-05T19:58:55.918Z,1.25
2022-10-05T20:09:21.511Z,1.48
2022-10-05T20:20:01.534Z,1.50
2022-10-05T20:30:27.403Z,1.30
2022-10-05T20:40:48.886Z,1.23
2022-10-05T20:51:10.334Z,1.27
2022-10-05T21:01:32.035Z,1.33
2022-10-05T21:11:54.496Z,1.10
2022-10-05T21:22:15.984Z,1.60
2022-10-05T21:32:41.799Z,1.00
2022-10-05T21:43:05.588Z,0.30
2022-10-05T21:53:30.938Z,0.60
2022-10-05T22:03:52.463Z,0.50
2022-10-05T22:24:38.625Z,0.50
2022-10-05T22:45:21.524Z,0.40
2022-10-05T23:06:10.104Z,0.20
2022-10-05T23:16:31.723Z,0.10
2022-10-05T23:26:53.204Z,0.20
2022-10-05T23:37:14.719Z,0.30
2022-10-05T23:57:57.615Z,0.50
